Time;durP1;ratioP1;P1;durP2;ratioP2;P2;SDS_P1;SDS_P2;PMS_P1;PMS_P2;Temp;Humidity;BMP_temperature;BMP_pressure;BME280_temperature;BME280_humidity;BME280_pressure;Samples;Min_cycle;Max_cycle;Signal;HPM_P1;HPM_P2
2021/05/17 00:02:08;;;;;;;8.03;4.65;;;;;;;18.87;56.81;99500.08;1745370;80;21925;-58
2021/05/17 00:04:36;;;;;;;7.33;4.10;;;;;;;18.80;56.79;99503.72;1758318;80;21764;-58
2021/05/17 00:07:07;;;;;;;9.15;4.83;;;;;;;18.73;56.66;99497.02;1756907;80;21122;-58
2021/05/17 00:09:35;;;;;;;7.30;4.33;;;;;;;18.68;56.51;99496.28;1756904;80;21101;-58
2021/05/17 00:12:03;;;;;;;8.10;4.17;;;;;;;18.65;56.48;99484.67;1758595;80;21127;-58
2021/05/17 00:14:31;;;;;;;7.03;4.53;;;;;;;18.62;56.23;99485.06;1752501;80;21041;-65
2021/05/17 00:16:59;;;;;;;8.58;4.45;;;;;;;18.59;55.76;99476.65;1761316;80;21191;-65
2021/05/17 00:19:27;;;;;;;12.55;5.20;;;;;;;18.53;55.42;99486.27;1760122;80;21609;-65
2021/05/17 00:21:55;;;;;;;12.82;5.35;;;;;;;18.51;56.01;99501.62;1761402;80;21583;-65
2021/05/17 00:24:43;;;;;;;8.98;4.05;;;;;;;18.52;57.65;99508.06;1734990;79;21111;-65
2021/05/17 00:27:12;;;;;;;6.70;3.87;;;;;;;18.54;58.34;99494.06;1655934;86;21586;-65
2021/05/17 00:29:40;;;;;;;6.60;4.15;;;;;;;18.63;55.80;99489.39;1662640;84;21879;-65
2021/05/17 00:32:07;;;;;;;7.75;4.25;;;;;;;18.70;55.02;99491.56;1663477;84;21160;-65
2021/05/17 00:34:34;;;;;;;7.70;4.00;;;;;;;18.72;54.93;99486.86;1662833;84;21119;-65
2021/05/17 00:37:01;;;;;;;6.60;3.87;;;;;;;18.75;55.00;99486.46;1662209;86;21075;-66
2021/05/17 00:39:28;;;;;;;6.60;3.67;;;;;;;18.76;54.77;99475.28;1665072;84;21590;-65
2021/05/17 00:41:57;;;;;;;7.05;4.40;;;;;;;18.73;54.75;99475.70;1659382;84;21080;-65
2021/05/17 00:44:25;;;;;;;8.98;4.28;;;;;;;18.67;54.74;99475.16;1663695;84;21139;-65
2021/05/17 00:46:52;;;;;;;8.00;3.83;;;;;;;18.63;54.53;99472.06;1665109;84;21134;-65
2021/05/17 00:49:19;;;;;;;6.70;3.72;;;;;;;18.60;54.42;99472.98;1664160;84;21175;-65
2021/05/17 00:51:47;;;;;;;6.50;3.65;;;;;;;18.58;54.33;99467.84;1664572;85;21172;-65
2021/05/17 00:54:16;;;;;;;9.78;4.15;;;;;;;18.59;54.13;99468.14;1659496;85;21069;-65
2021/05/17 00:56:42;;;;;;;9.23;4.03;;;;;;;18.59;54.29;99468.14;1625551;86;21160;-65
2021/05/17 00:59:10;;;;;;;5.87;3.87;;;;;;;18.58;54.69;99469.17;1649793;86;21761;-65
2021/05/17 01:01:38;;;;;;;11.68;3.95;;;;;;;18.60;55.90;99470.31;1647715;85;21204;-65
2021/05/17 01:04:07;;;;;;;6.78;3.52;;;;;;;18.59;55.78;99472.13;1619568;86;21141;-65
2021/05/17 01:06:36;;;;;;;7.92;4.35;;;;;;;18.56;54.95;99461.38;1650827;85;21199;-65
2021/05/17 01:09:07;;;;;;;6.58;3.67;;;;;;;18.55;54.62;99481.55;1613627;86;21233;-65
2021/05/17 01:11:36;;;;;;;7.35;4.12;;;;;;;18.49;55.00;99479.66;1630095;87;21659;-65
2021/05/17 01:14:08;;;;;;;8.65;4.17;;;;;;;18.44;55.11;99476.77;1604933;87;21212;-65
2021/05/17 01:16:38;;;;;;;7.43;3.87;;;;;;;18.42;55.77;99474.81;1661327;84;21547;-65
2021/05/17 01:19:11;;;;;;;5.80;3.62;;;;;;;18.38;56.25;99477.87;1662908;85;21195;-65
2021/05/17 01:21:41;;;;;;;8.38;4.75;;;;;;;18.30;56.57;99470.03;1665240;84;21135;-65
2021/05/17 01:24:09;;;;;;;7.22;4.22;;;;;;;18.27;56.54;99477.59;1662939;84;21191;-65
2021/05/17 01:26:36;;;;;;;6.03;3.80;;;;;;;18.25;57.13;99480.45;1677399;83;21099;-64
2021/05/17 01:29:07;;;;;;;9.53;3.80;;;;;;;18.33;57.92;99487.47;1678990;83;21083;-64
2021/05/17 01:31:35;;;;;;;6.67;3.72;;;;;;;18.46;56.81;99490.22;1660893;85;21068;-66
2021/05/17 01:34:04;;;;;;;6.80;3.80;;;;;;;18.49;56.66;99486.33;1680768;84;22356;-64
2021/05/17 01:36:31;;;;;;;6.10;3.98;;;;;;;18.47;56.71;99494.52;1643679;85;21142;-65
2021/05/17 01:38:59;;;;;;;6.33;3.80;;;;;;;18.45;57.08;99510.39;1680790;84;21051;-66
2021/05/17 01:41:27;;;;;;;11.68;4.12;;;;;;;18.42;57.96;99524.09;1677817;83;21176;-65
2021/05/17 01:43:57;;;;;;;8.68;4.00;;;;;;;18.41;59.30;99542.41;1671063;84;21144;-65
2021/05/17 01:46:27;;;;;;;12.03;4.90;;;;;;;18.36;60.05;99533.17;1673556;83;21128;-65
2021/05/17 01:48:57;;;;;;;7.60;4.28;;;;;;;18.30;60.47;99521.14;1686747;83;21087;-65
2021/05/17 01:51:24;;;;;;;7.15;4.58;;;;;;;18.23;60.83;99515.77;1641442;84;21092;-64
2021/05/17 01:53:51;;;;;;;7.85;5.03;;;;;;;18.19;60.34;99514.02;1680701;84;21103;-65
2021/05/17 01:56:19;;;;;;;8.90;4.47;;;;;;;18.15;60.67;99511.92;1672713;83;21083;-64
2021/05/17 01:58:46;;;;;;;6.70;4.45;;;;;;;18.05;60.71;99506.92;1677210;84;21670;-64
2021/05/17 02:01:15;;;;;;;7.92;4.30;;;;;;;18.00;60.49;99512.84;1669506;83;21173;-64
2021/05/17 02:03:45;;;;;;;8.75;4.95;;;;;;;17.95;60.95;99511.77;1661640;84;21147;-63
2021/05/17 02:06:15;;;;;;;7.15;4.15;;;;;;;17.91;61.53;99502.02;1679774;83;21067;-63
2021/05/17 02:08:44;;;;;;;8.50;4.20;;;;;;;17.88;61.83;99494.41;1642968;85;21543;-64
2021/05/17 02:11:12;;;;;;;8.28;4.25;;;;;;;17.81;62.56;99486.34;1638761;86;21787;-63
2021/05/17 02:13:39;;;;;;;8.18;4.65;;;;;;;17.66;63.14;99476.28;1666381;84;21108;-64
2021/05/17 02:16:08;;;;;;;7.55;3.98;;;;;;;17.45;63.60;99467.82;1674382;83;21215;-63
2021/05/17 02:18:41;;;;;;;8.23;4.55;;;;;;;17.26;64.18;99463.44;1666877;83;21594;-64
2021/05/17 02:21:10;;;;;;;8.15;4.50;;;;;;;17.12;64.48;99456.33;1650126;85;21123;-64
2021/05/17 02:23:37;;;;;;;7.92;4.15;;;;;;;17.00;64.33;99448.54;1623788;85;21116;-63
2021/05/17 02:26:04;;;;;;;6.22;3.70;;;;;;;16.93;64.51;99448.46;1670611;83;21047;-63
2021/05/17 02:28:31;;;;;;;6.10;3.47;;;;;;;16.98;64.50;99447.39;1662944;84;21091;-63
2021/05/17 02:30:59;;;;;;;6.60;4.08;;;;;;;17.07;64.37;99444.92;1662753;85;21132;-63
2021/05/17 02:33:28;;;;;;;8.00;3.75;;;;;;;17.11;64.17;99446.70;1678882;83;21610;-63
2021/05/17 02:35:56;;;;;;;10.38;4.10;;;;;;;17.12;64.20;99447.03;1671326;83;21059;-63
2021/05/17 02:38:24;;;;;;;6.45;4.35;;;;;;;17.16;64.03;99451.45;1666560;84;21116;-63
2021/05/17 02:40:51;;;;;;;8.50;5.08;;;;;;;17.22;64.69;99454.19;1672202;83;21084;-62
2021/05/17 02:43:21;;;;;;;8.23;4.55;;;;;;;17.22;65.17;99454.19;1668260;84;21114;-62
2021/05/17 02:45:51;;;;;;;7.47;4.22;;;;;;;17.20;65.14;99453.55;1672809;85;21040;-62
2021/05/17 02:48:28;;;;;;;7.65;4.12;;;;;;;17.26;65.21;99455.47;1672054;84;21705;-63
2021/05/17 02:50:50;;;;;;;8.98;4.00;;;;;;;17.31;65.61;99450.08;1665457;83;21101;-62
2021/05/17 02:53:37;;;;;;;6.47;3.92;;;;;;;17.26;65.81;99442.66;1647766;84;21151;-63
2021/05/17 02:56:09;;;;;;;8.03;4.67;;;;;;;17.21;65.74;99443.73;1669306;85;21167;-64
2021/05/17 02:58:42;;;;;;;9.78;4.85;;;;;;;17.18;65.69;99446.28;1669192;84;21141;-65
2021/05/17 03:01:36;;;;;;;9.13;4.65;;;;;;;17.16;65.88;99438.98;1644468;85;21081;-66
2021/05/17 03:04:13;;;;;;;7.47;4.30;;;;;;;17.10;66.22;99439.75;1665754;84;21701;-67
2021/05/17 03:06:40;;;;;;;8.00;4.45;;;;;;;16.99;66.83;99438.39;1648094;85;21535;-68
2021/05/17 03:09:10;;;;;;;7.47;4.35;;;;;;;16.97;67.26;99429.80;1679632;83;21067;-68
2021/05/17 03:11:47;;;;;;;10.53;4.97;;;;;;;16.96;67.57;99420.67;1667778;85;21648;-68
2021/05/17 03:14:16;;;;;;;9.08;4.50;;;;;;;16.96;67.59;99420.16;1650127;85;21133;-67
2021/05/17 03:16:47;;;;;;;8.85;4.75;;;;;;;16.90;67.79;99417.77;1662791;84;21145;-68
2021/05/17 03:19:14;;;;;;;7.33;4.25;;;;;;;16.87;67.90;99410.16;1650515;84;21844;-65
2021/05/17 03:21:41;;;;;;;13.05;5.37;;;;;;;16.85;67.95;99398.91;1669949;84;21076;-68
2021/05/17 03:24:08;;;;;;;9.75;4.85;;;;;;;16.80;68.21;99390.64;1652115;85;21037;-65
2021/05/17 03:26:36;;;;;;;9.20;4.97;;;;;;;16.72;68.43;99364.19;1657440;83;21136;-69
2021/05/17 03:29:03;;;;;;;8.25;5.35;;;;;;;16.67;68.54;99340.03;1650715;86;21132;-69
2021/05/17 03:31:30;;;;;;;8.98;5.58;;;;;;;16.57;68.82;99316.42;1636543;86;21115;-67
2021/05/17 03:33:57;;;;;;;8.23;5.12;;;;;;;16.42;69.64;99291.75;1654783;84;21173;-66
2021/05/17 03:36:24;;;;;;;7.47;4.67;;;;;;;16.30;69.48;99280.28;1657915;84;21068;-66
2021/05/17 03:38:52;;;;;;;7.60;4.85;;;;;;;16.23;69.12;99290.02;1652133;85;21655;-70
2021/05/17 03:41:19;;;;;;;8.98;4.80;;;;;;;16.27;68.71;99309.04;1651024;86;21172;-70
2021/05/17 03:43:45;;;;;;;11.43;5.45;;;;;;;16.28;68.81;99312.02;1654268;84;21111;-71
2021/05/17 03:46:11;;;;;;;9.13;4.92;;;;;;;16.25;68.86;99313.72;1659283;86;21166;-68
2021/05/17 03:48:41;;;;;;;7.58;4.70;;;;;;;16.25;68.84;99303.09;1660627;84;21173;-70
2021/05/17 03:51:10;;;;;;;7.47;3.25;;;;;;;16.22;68.96;99302.95;1659183;84;21227;-65
2021/05/17 03:53:37;;;;;;;6.10;3.90;;;;;;;16.28;68.60;99300.89;1653805;84;21167;-67
2021/05/17 03:56:03;;;;;;;7.50;4.37;;;;;;;16.39;68.48;99299.60;1650471;84;21061;-67
2021/05/17 03:58:30;;;;;;;9.73;4.75;;;;;;;16.46;68.53;99301.81;1634016;86;21147;-66
2021/05/17 04:00:58;;;;;;;6.45;4.10;;;;;;;16.49;68.71;99301.93;1657075;84;21120;-74
2021/05/17 04:03:25;;;;;;;9.13;4.12;;;;;;;16.50;68.79;99299.61;1661972;86;21203;-64
2021/05/17 04:12:31;;;;;;;8.03;4.25;;;;;;;16.64;68.51;99295.25;1656264;84;21068;-65
2021/05/17 04:13:38;;;;;;;7.17;4.58;;;;;;;16.69;68.59;99287.05;1654325;84;22369;-64
2021/05/17 04:16:05;;;;;;;13.40;5.47;;;;;;;16.71;68.86;99280.22;1659974;84;21129;-65
2021/05/17 04:18:31;;;;;;;11.00;5.40;;;;;;;16.78;69.41;99277.11;1663122;84;21155;-66
2021/05/17 04:20:58;;;;;;;13.75;5.97;;;;;;;16.88;69.28;99280.81;1649559;84;21186;-66
2021/05/17 04:23:26;;;;;;;8.85;5.47;;;;;;;16.92;69.46;99279.92;1661056;84;21053;-65
2021/05/17 04:25:54;;;;;;;9.28;5.60;;;;;;;16.96;69.40;99282.50;1659871;86;22270;-63
2021/05/17 04:28:20;;;;;;;9.68;5.17;;;;;;;17.01;69.35;99291.56;1681032;83;21697;-64
2021/05/17 04:30:47;;;;;;;9.85;5.28;;;;;;;17.12;68.94;99300.84;1670304;83;21668;-66
2021/05/17 04:33:13;;;;;;;7.47;4.20;;;;;;;17.20;68.44;99311.34;1655966;83;21065;-65
2021/05/17 04:35:40;;;;;;;8.28;4.85;;;;;;;17.24;67.66;99320.56;1669865;84;21167;-67
2021/05/17 04:38:07;;;;;;;8.78;4.25;;;;;;;17.25;67.81;99336.84;1683900;83;21601;-65
2021/05/17 04:40:33;;;;;;;8.45;4.83;;;;;;;17.27;68.09;99332.14;1670329;84;21755;-66
2021/05/17 04:43:00;;;;;;;10.63;4.62;;;;;;;17.37;67.56;99335.80;1677113;85;21564;-66
2021/05/17 04:45:27;;;;;;;11.10;4.55;;;;;;;17.49;67.44;99332.11;1629816;84;21191;-67
2021/05/17 04:47:54;;;;;;;10.35;4.80;;;;;;;17.58;67.26;99332.26;1678314;83;21103;-66
2021/05/17 04:50:22;;;;;;;9.58;5.10;;;;;;;17.67;66.60;99333.45;1683203;83;21277;-67
2021/05/17 04:52:51;;;;;;;6.53;4.70;;;;;;;17.68;66.38;99331.11;1669759;83;21157;-67
2021/05/17 04:55:18;;;;;;;8.93;5.53;;;;;;;17.66;66.22;99331.30;1643850;85;21127;-68
2021/05/17 04:57:45;;;;;;;7.70;5.17;;;;;;;17.67;65.99;99332.95;1679445;83;22125;-66
2021/05/17 05:00:13;;;;;;;10.93;5.05;;;;;;;17.74;65.74;99327.68;1643329;85;21173;-66
2021/05/17 05:02:39;;;;;;;9.48;4.87;;;;;;;17.78;65.53;99320.94;1679497;83;21380;-67
2021/05/17 05:05:08;;;;;;;6.60;4.70;;;;;;;17.73;65.71;99310.06;1652631;85;21971;-68
2021/05/17 05:08:39;;;;;;;8.60;4.75;;;;;;;17.66;65.05;99302.56;1880492;74;22541;-68
2021/05/17 05:11:06;;;;;;;11.22;5.72;;;;;;;17.56;65.32;99302.90;1832205;76;20920;-66
2021/05/17 05:13:32;;;;;;;6.97;4.87;;;;;;;17.49;65.37;99306.03;1831823;76;21017;-69
2021/05/17 05:15:59;;;;;;;9.45;5.97;;;;;;;17.46;65.64;99299.25;1815515;77;20956;-68
2021/05/17 05:18:25;;;;;;;9.15;5.90;;;;;;;17.48;65.75;99293.22;1836133;75;20944;-67
2021/05/17 05:20:53;;;;;;;9.28;6.00;;;;;;;17.44;66.06;99293.31;1833408;77;20973;-66
2021/05/17 05:23:21;;;;;;;11.40;6.03;;;;;;;17.40;66.37;99286.23;1847880;75;21862;-65
2021/05/17 05:33:34;;;;;;;12.82;6.12;;;;;;;17.26;67.00;99255.23;1824431;76;20932;-66
2021/05/17 05:36:00;;;;;;;9.48;5.60;;;;;;;17.18;67.47;99246.92;1805514;77;21393;-67
2021/05/17 05:38:27;;;;;;;7.75;4.87;;;;;;;17.15;67.70;99242.50;1765435;78;21071;-70
2021/05/17 05:40:53;;;;;;;7.35;4.65;;;;;;;17.18;67.87;99231.45;1802599;77;20953;-68
2021/05/17 05:43:20;;;;;;;7.83;5.20;;;;;;;17.25;67.82;99225.70;1812656;78;21034;-69
2021/05/17 05:45:46;;;;;;;9.68;6.05;;;;;;;17.29;67.98;99224.80;1796118;77;22266;-67
2021/05/17 05:48:13;;;;;;;9.08;5.33;;;;;;;17.30;68.22;99225.94;1747754;80;21057;-67
2021/05/17 05:50:40;;;;;;;10.93;5.47;;;;;;;17.32;68.34;99221.75;1772820;78;21096;-67
2021/05/17 05:53:07;;;;;;;9.68;5.85;;;;;;;17.39;68.51;99215.96;1775199;78;21171;-73
2021/05/17 05:55:33;;;;;;;8.70;5.55;;;;;;;17.47;68.24;99207.83;1790023;78;21115;-71
2021/05/17 05:58:00;;;;;;;10.08;5.75;;;;;;;17.49;68.46;99200.47;1795578;77;20928;-68
2021/05/17 06:00:30;;;;;;;10.43;5.97;;;;;;;17.47;68.21;99187.88;1742468;80;20922;-69
2021/05/17 06:02:55;;;;;;;9.85;5.83;;;;;;;17.46;67.91;99187.05;1786790;77;21004;-65
2021/05/17 06:05:22;;;;;;;8.33;6.08;;;;;;;17.47;67.65;99181.23;1781422;79;20938;-68
2021/05/17 06:07:49;;;;;;;8.95;5.90;;;;;;;17.51;67.40;99174.49;1801421;77;20904;-67
2021/05/17 06:10:16;;;;;;;7.90;5.70;;;;;;;17.50;67.24;99164.89;1775155;77;21544;-66
2021/05/17 06:12:42;;;;;;;8.38;5.37;;;;;;;17.49;67.18;99169.08;1797250;78;22117;-67
2021/05/17 06:15:11;;;;;;;8.65;5.30;;;;;;;17.46;67.48;99162.30;1792098;77;21131;-66
2021/05/17 06:17:39;;;;;;;9.53;5.95;;;;;;;17.48;67.33;99158.92;1770605;78;21099;-70
2021/05/17 06:20:07;;;;;;;9.10;5.35;;;;;;;17.57;67.01;99152.43;1797274;77;20981;-68
2021/05/17 06:22:37;;;;;;;6.95;4.97;;;;;;;17.61;66.73;99150.19;1811993;78;21132;-72
2021/05/17 06:25:08;;;;;;;11.00;5.45;;;;;;;17.62;66.66;99147.34;1771598;78;21060;-66
2021/05/17 06:27:35;;;;;;;9.93;5.30;;;;;;;17.66;66.77;99145.09;1801284;77;21118;-66
2021/05/17 06:30:05;;;;;;;7.50;5.03;;;;;;;17.75;66.71;99165.20;1800638;77;22406;-68
2021/05/17 06:32:32;;;;;;;8.48;4.40;;;;;;;17.90;65.99;99185.00;1783388;78;22303;-69
2021/05/17 06:34:59;;;;;;;8.43;5.28;;;;;;;17.98;65.84;99210.11;1805105;77;21147;-66
2021/05/17 06:37:25;;;;;;;7.72;5.35;;;;;;;18.01;65.48;99219.55;1747801;79;21120;-69
2021/05/17 06:39:52;;;;;;;7.85;5.33;;;;;;;17.99;65.48;99207.77;1782906;78;21438;-67
2021/05/17 06:42:20;;;;;;;7.30;4.67;;;;;;;18.03;65.32;99206.86;1785497;78;21060;-67
2021/05/17 06:44:46;;;;;;;9.45;4.95;;;;;;;18.05;65.33;99205.33;1783432;78;21064;-69
2021/05/17 06:47:13;;;;;;;6.60;4.40;;;;;;;18.12;65.17;99213.66;1746674;79;21626;-68
2021/05/17 06:49:42;;;;;;;7.55;4.95;;;;;;;18.25;64.84;99212.04;1782395;78;21072;-66
2021/05/17 06:52:12;;;;;;;9.08;5.40;;;;;;;18.40;64.96;99224.66;1761501;79;22176;-69
2021/05/17 06:54:38;;;;;;;7.12;4.28;;;;;;;18.51;64.11;99222.74;1784238;78;21600;-72
2021/05/17 06:59:48;;;;;;;12.10;5.90;;;;;;;18.68;63.91;99224.50;1750860;79;21130;-69
2021/05/17 07:02:20;;;;;;;10.05;4.97;;;;;;;18.77;63.84;99221.12;1780518;78;21558;-69
2021/05/17 07:04:47;;;;;;;7.85;4.65;;;;;;;18.89;63.69;99205.36;1782889;78;21112;-74
2021/05/17 07:07:19;;;;;;;7.83;4.42;;;;;;;19.04;62.39;99196.62;1779989;78;21617;-67
2021/05/17 07:12:29;;;;;;;7.90;4.33;;;;;;;19.00;61.85;99202.08;1773680;78;21048;-68
2021/05/17 07:14:59;;;;;;;6.78;4.42;;;;;;;18.94;61.79;99209.56;1736291;80;21854;-67
2021/05/17 07:17:24;;;;;;;8.18;5.10;;;;;;;18.90;61.61;99195.83;1767242;78;21313;-66
2021/05/17 07:19:50;;;;;;;8.30;4.75;;;;;;;18.89;62.11;99190.70;1763457;80;21051;-67
2021/05/17 07:25:04;;;;;;;6.42;3.55;;;;;;;18.96;62.11;99164.85;1767577;80;21060;-67
2021/05/17 07:27:30;;;;;;;8.73;4.10;;;;;;;19.01;62.05;99171.71;1772082;80;21067;-66
2021/05/17 07:29:57;;;;;;;7.53;3.90;;;;;;;19.06;61.30;99183.94;1763308;80;22245;-67
2021/05/17 07:32:23;;;;;;;6.28;4.08;;;;;;;19.07;61.58;99192.22;1750427;78;20991;-72
2021/05/17 07:34:50;;;;;;;9.48;4.22;;;;;;;19.09;61.70;99190.16;1767495;80;21090;-65
2021/05/17 07:37:19;;;;;;;7.40;3.83;;;;;;;19.22;62.25;99195.19;1767012;80;21088;-66
2021/05/17 07:39:45;;;;;;;6.28;3.75;;;;;;;19.39;61.90;99205.70;1772117;80;20940;-67
2021/05/17 07:42:12;;;;;;;5.85;3.55;;;;;;;19.51;60.85;99218.40;1742995;80;21664;-66
2021/05/17 07:44:39;;;;;;;8.73;4.22;;;;;;;19.58;59.79;99238.68;1761879;80;21078;-69
2021/05/17 07:47:05;;;;;;;5.90;3.70;;;;;;;19.61;59.51;99228.12;1765871;80;21044;-65
2021/05/17 07:49:39;;;;;;;6.55;3.72;;;;;;;19.64;59.43;99217.02;1767881;80;21096;-63
2021/05/17 07:52:06;;;;;;;6.05;3.52;;;;;;;19.69;60.19;99219.88;1749431;81;21128;-72
2021/05/17 07:54:35;;;;;;;8.20;3.45;;;;;;;19.79;60.27;99216.80;1751833;78;21122;-67
2021/05/17 07:57:04;;;;;;;8.05;4.25;;;;;;;19.97;60.07;99214.26;1732124;81;21079;-68
2021/05/17 07:59:32;;;;;;;6.28;3.60;;;;;;;20.13;59.93;99216.13;1787251;79;21000;-68
2021/05/17 08:01:59;;;;;;;8.80;3.67;;;;;;;20.25;59.15;99214.41;1788556;79;21726;-65
2021/05/17 08:04:26;;;;;;;6.25;3.15;;;;;;;20.29;59.05;99214.30;1789116;79;21088;-70
2021/05/17 08:06:55;;;;;;;9.18;3.77;;;;;;;20.36;58.42;99226.27;1791348;77;21176;-65
2021/05/17 08:09:22;;;;;;;8.58;3.98;;;;;;;20.40;58.89;99228.80;1786923;79;21087;-70
2021/05/17 08:11:50;;;;;;;6.40;3.95;;;;;;;20.46;57.83;99234.63;1769434;80;21086;-67
2021/05/17 08:14:17;;;;;;;7.87;3.67;;;;;;;20.54;58.04;99237.05;1774423;79;21121;-69
2021/05/17 08:16:45;;;;;;;7.05;3.90;;;;;;;20.64;57.42;99228.56;1738978;79;21067;-64
2021/05/17 08:19:14;;;;;;;8.43;3.17;;;;;;;20.69;58.19;99232.73;1795789;77;20930;-64
2021/05/17 08:21:41;;;;;;;7.25;3.12;;;;;;;20.82;57.87;99231.83;1778800;79;20947;-64
2021/05/17 08:24:09;;;;;;;5.80;3.33;;;;;;;21.01;56.85;99230.54;1802945;77;21690;-66
2021/05/17 08:26:35;;;;;;;5.47;3.33;;;;;;;21.06;55.90;99237.38;1749436;80;21090;-64
2021/05/17 08:29:02;;;;;;;5.50;2.98;;;;;;;21.09;55.84;99235.61;1783974;78;21193;-66
2021/05/17 08:31:30;;;;;;;6.25;2.70;;;;;;;21.12;56.03;99239.19;1749878;79;21078;-69
2021/05/17 08:33:56;;;;;;;7.20;2.90;;;;;;;21.20;55.46;99242.92;1784751;78;21067;-68
2021/05/17 08:36:23;;;;;;;6.03;2.72;;;;;;;21.30;55.26;99249.92;1772683;79;21064;-72
2021/05/17 08:38:49;;;;;;;4.97;2.58;;;;;;;21.43;55.13;99265.54;1763491;78;21080;-68
2021/05/17 08:41:16;;;;;;;5.47;2.75;;;;;;;21.54;54.67;99273.41;1795047;77;20954;-68
2021/05/17 08:43:43;;;;;;;5.45;2.95;;;;;;;21.62;53.92;99268.58;1799920;78;21074;-73
2021/05/17 08:46:10;;;;;;;4.83;2.75;;;;;;;21.68;53.35;99265.52;1770637;79;21109;-65
2021/05/17 08:48:52;;;;;;;7.05;3.20;;;;;;;21.73;52.97;99275.56;1761573;80;20884;-65
2021/05/17 08:51:14;;;;;;;5.62;2.92;;;;;;;21.73;52.83;99268.34;1792830;77;20922;-64
2021/05/17 08:53:40;;;;;;;5.80;2.83;;;;;;;21.75;53.04;99262.77;1803955;79;20925;-65
2021/05/17 08:56:08;;;;;;;5.60;3.05;;;;;;;21.74;52.91;99268.65;1787254;77;21577;-64
2021/05/17 08:58:34;;;;;;;5.05;2.65;;;;;;;21.73;52.71;99264.86;1791447;77;20891;-64
2021/05/17 09:01:04;;;;;;;6.58;3.22;;;;;;;21.66;52.42;99256.37;1796416;77;21002;-65
2021/05/17 09:03:31;;;;;;;5.85;3.58;;;;;;;21.60;52.57;99264.47;1791857;77;21089;-64
2021/05/17 09:06:08;;;;;;;5.80;2.52;;;;;;;21.55;52.71;99269.67;1805544;77;21110;-65
2021/05/17 09:08:43;;;;;;;;;;;;;;;21.49;52.66;99272.20;1769830;78;21065;-65
2021/05/17 09:11:10;;;;;;;7.22;3.17;;;;;;;21.45;53.30;99276.83;1741543;80;21055;-64
2021/05/17 09:13:37;;;;;;;4.85;2.17;;;;;;;21.37;53.43;99281.97;1745294;80;21088;-67
2021/05/17 09:16:04;;;;;;;7.58;2.70;;;;;;;21.37;53.04;99287.32;1766084;80;21322;-63
2021/05/17 09:18:31;;;;;;;9.63;2.65;;;;;;;21.35;52.96;99292.08;1771633;80;21582;-64
2021/05/17 09:21:02;;;;;;;6.78;2.50;;;;;;;21.36;53.42;99301.72;1750090;80;21075;-64
2021/05/17 09:23:32;;;;;;;5.30;3.12;;;;;;;21.38;53.49;99303.66;1735725;81;21040;-64
2021/05/17 09:26:14;;;;;;;5.22;2.67;;;;;;;21.41;53.40;99310.44;1757179;80;21542;-67
2021/05/17 09:28:46;;;;;;;5.35;2.80;;;;;;;21.41;53.63;99311.78;1741392;80;21020;-64
2021/05/17 09:31:23;;;;;;;6.85;3.00;;;;;;;21.41;53.79;99315.79;1743541;80;21065;-66
2021/05/17 09:33:58;;;;;;;;;;;;;;;21.39;53.59;99310.66;1779533;80;21602;-67
2021/05/17 09:36:37;;;;;;;8.63;3.07;;;;;;;21.37;53.53;99322.11;1755491;80;20217;-66
2021/05/17 09:39:11;;;;;;;4.90;2.58;;;;;;;21.27;53.87;99331.95;1761966;80;21083;-65
2021/05/17 09:41:51;;;;;;;6.20;3.12;;;;;;;21.20;54.42;99331.70;1750458;80;21184;-63
2021/05/17 09:44:22;;;;;;;6.92;2.95;;;;;;;21.10;54.94;99334.88;1755250;80;21076;-67
2021/05/17 09:47:05;;;;;;;5.25;2.85;;;;;;;20.97;55.98;99329.91;1757996;79;21088;-67
2021/05/17 09:49:50;;;;;;;7.67;3.42;;;;;;;20.88;56.38;99324.54;1759220;80;21068;-68
2021/05/17 09:52:29;;;;;;;5.67;3.02;;;;;;;20.75;58.62;99305.91;1757019;80;21035;-63
2021/05/17 09:55:07;;;;;;;6.50;3.35;;;;;;;20.56;59.33;99275.55;1737926;80;21116;-70
2021/05/17 09:57:42;;;;;;;6.90;3.50;;;;;;;20.36;60.77;99231.62;1758727;80;21582;-69
2021/05/17 10:00:19;;;;;;;6.30;3.72;;;;;;;20.14;61.74;99205.23;1766250;80;21675;-64
2021/05/17 10:02:50;;;;;;;5.90;3.30;;;;;;;19.86;62.95;99194.38;1758563;80;21019;-63
2021/05/17 10:05:20;;;;;;;7.92;3.72;;;;;;;19.60;63.13;99163.76;1740587;80;21043;-66
2021/05/17 10:07:53;;;;;;;9.78;4.45;;;;;;;19.40;64.25;99119.82;1757560;80;21392;-63
2021/05/17 10:10:22;;;;;;;6.62;3.70;;;;;;;19.25;64.57;99073.44;1770302;79;21147;-63
2021/05/17 10:12:50;;;;;;;6.78;3.80;;;;;;;19.08;65.00;99057.06;1768578;79;21756;-63
2021/05/17 10:15:17;;;;;;;7.65;3.50;;;;;;;18.95;65.91;99064.61;1772511;78;21697;-64
2021/05/17 10:17:44;;;;;;;8.55;3.92;;;;;;;18.87;66.13;99060.84;1778820;78;21186;-66
2021/05/17 10:20:15;;;;;;;8.75;4.33;;;;;;;18.86;66.51;99070.69;1780466;79;21104;-64
2021/05/17 10:22:43;;;;;;;7.08;4.30;;;;;;;18.86;66.58;99065.84;1746015;80;21090;-70
2021/05/17 10:25:11;;;;;;;6.83;3.87;;;;;;;18.82;66.67;99075.27;1743426;79;21872;-63
2021/05/17 10:27:46;;;;;;;11.48;4.70;;;;;;;18.77;66.69;99081.22;1777439;79;20944;-64
2021/05/17 10:30:15;;;;;;;8.55;5.10;;;;;;;18.77;66.82;99089.21;1758287;80;20960;-63
2021/05/17 10:32:48;;;;;;;8.93;4.55;;;;;;;18.84;67.01;99094.56;1773242;79;20987;-65
2021/05/17 10:35:18;;;;;;;6.92;3.90;;;;;;;18.88;67.17;99093.13;1789821;79;21100;-63
2021/05/17 10:37:47;;;;;;;14.15;5.10;;;;;;;18.93;66.31;99098.13;1755596;79;21106;-64
2021/05/17 10:40:36;;;;;;;7.65;3.42;;;;;;;18.99;65.95;99113.80;1772645;79;21879;-64
2021/05/17 10:43:11;;;;;;;10.35;3.40;;;;;;;19.18;65.43;99123.28;1780158;78;21094;-66
2021/05/17 10:48:26;;;;;;;6.45;2.87;;;;;;;19.64;64.17;99128.97;1797271;78;21649;-64
2021/05/17 10:51:16;;;;;;;;;;;;;;;19.82;62.65;99131.78;1752978;80;21147;-63
2021/05/17 10:53:46;;;;;;;5.92;2.72;;;;;;;19.94;61.78;99137.26;1778921;78;20581;-64
2021/05/17 10:56:17;;;;;;;5.92;2.85;;;;;;;19.97;61.58;99129.32;1778825;79;21128;-69
2021/05/17 11:01:57;;;;;;;6.58;2.52;;;;;;;19.98;61.37;99142.98;1776330;78;21124;-64
2021/05/17 11:04:31;;;;;;;6.75;2.87;;;;;;;20.07;61.54;99151.02;1807290;77;21837;-67
2021/05/17 11:07:14;;;;;;;5.33;2.85;;;;;;;20.11;61.11;99150.91;1762045;79;21116;-63
2021/05/17 11:10:08;;;;;;;5.17;2.47;;;;;;;20.14;61.84;99147.82;1795581;78;21351;-67
2021/05/17 11:12:46;;;;;;;5.47;3.40;;;;;;;20.19;62.12;99147.15;1788689;78;20906;-64
2021/05/17 11:15:18;;;;;;;5.20;2.50;;;;;;;20.26;60.40;99141.77;1800954;78;21555;-69
2021/05/17 11:18:07;;;;;;;4.75;2.42;;;;;;;20.27;60.90;99147.41;1787219;79;21765;-66
2021/05/17 11:20:47;;;;;;;7.12;3.52;;;;;;;20.33;59.72;99147.89;1793168;79;21115;-67
2021/05/17 11:23:17;;;;;;;6.53;3.70;;;;;;;20.38;60.65;99164.09;1787936;79;21107;-69
2021/05/17 11:28:45;;;;;;;7.67;3.10;;;;;;;20.28;59.68;99165.90;1782085;78;21498;-64
2021/05/17 11:31:20;;;;;;;6.20;3.25;;;;;;;20.14;60.53;99169.19;1795144;78;21393;-64
2021/05/17 11:33:51;;;;;;;6.00;2.33;;;;;;;20.03;60.76;99168.00;1793540;77;21052;-62
2021/05/17 11:36:50;;;;;;;5.58;2.42;;;;;;;20.01;61.33;99152.72;1795219;77;21453;-66
2021/05/17 11:39:25;;;;;;;5.40;2.65;;;;;;;20.04;60.51;99160.30;1796237;79;21088;-64
2021/05/17 11:42:02;;;;;;;6.20;3.00;;;;;;;20.01;60.16;99163.39;1759870;79;21411;-66
2021/05/17 11:44:39;;;;;;;8.15;3.85;;;;;;;19.99;61.00;99168.66;1795982;77;21115;-67
2021/05/17 11:47:13;;;;;;;6.65;3.37;;;;;;;19.94;61.69;99177.30;1774939;79;21087;-67
2021/05/17 11:49:44;;;;;;;5.00;3.08;;;;;;;19.87;62.16;99179.20;1753049;78;20904;-67
2021/05/17 11:52:16;;;;;;;6.15;2.95;;;;;;;19.84;62.49;99177.76;1780659;78;21092;-64
2021/05/17 11:54:53;;;;;;;6.03;3.20;;;;;;;19.90;62.71;99184.61;1774225;78;21075;-65
2021/05/17 11:57:31;;;;;;;6.65;3.45;;;;;;;19.98;62.78;99181.70;1790424;78;21758;-67
2021/05/17 12:00:07;;;;;;;5.95;3.52;;;;;;;20.08;62.87;99178.56;1756668;78;20958;-72
2021/05/17 12:02:49;;;;;;;5.42;3.35;;;;;;;20.17;62.50;99173.26;1782717;78;20927;-68
2021/05/17 12:05:16;;;;;;;5.90;3.55;;;;;;;20.22;62.42;99176.94;1792278;77;20961;-67
2021/05/17 12:07:45;;;;;;;6.03;3.58;;;;;;;20.24;62.36;99171.39;1776269;77;20949;-66
2021/05/17 12:10:13;;;;;;;7.72;3.70;;;;;;;20.24;62.21;99174.05;1785768;77;21355;-69
2021/05/17 12:12:40;;;;;;;6.55;3.35;;;;;;;20.20;62.50;99173.64;1790458;79;21073;-66
2021/05/17 12:15:11;;;;;;;9.00;3.02;;;;;;;20.15;62.52;99172.13;1790855;79;21165;-65
2021/05/17 12:17:38;;;;;;;6.75;2.60;;;;;;;20.16;62.70;99181.80;1794630;79;22307;-67